createdAt,value
2019-03-20T00:01:19.318Z,7.60
2019-03-20T00:03:50.575Z,7.55
2019-03-20T00:06:21.560Z,7.52
2019-03-20T00:08:52.586Z,7.57
2019-03-20T00:11:25.101Z,7.63
2019-03-20T00:13:56.208Z,7.52
2019-03-20T00:16:27.326Z,7.44
2019-03-20T00:18:59.887Z,7.43
2019-03-20T00:21:31.043Z,7.40
2019-03-20T00:24:02.325Z,7.38
2019-03-20T00:26:33.330Z,7.27
2019-03-20T00:29:04.353Z,7.15
2019-03-20T00:31:35.333Z,7.21
2019-03-20T00:34:06.519Z,7.27
2019-03-20T00:36:37.609Z,7.41
2019-03-20T00:39:08.704Z,7.41
2019-03-20T00:41:39.707Z,7.36
2019-03-20T00:44:10.753Z,7.32
2019-03-20T00:46:41.700Z,7.39
2019-03-20T00:49:12.808Z,7.34
2019-03-20T00:51:43.910Z,7.22
2019-03-20T00:54:15.121Z,7.34
2019-03-20T00:56:46.944Z,7.31
2019-03-20T00:59:18.049Z,7.23
2019-03-20T01:01:49.160Z,7.23
2019-03-20T01:04:20.181Z,7.28
2019-03-20T01:06:54.373Z,7.45
2019-03-20T01:09:25.318Z,7.48
2019-03-20T01:11:56.412Z,7.30
2019-03-20T01:14:27.580Z,7.14
2019-03-20T01:16:58.544Z,7.21
2019-03-20T01:19:29.496Z,7.38
2019-03-20T01:22:00.493Z,7.37
2019-03-20T01:24:31.434Z,7.40
2019-03-20T01:27:02.568Z,7.31
2019-03-20T01:29:33.609Z,7.38
2019-03-20T01:32:04.595Z,7.39
2019-03-20T01:34:35.583Z,7.28
2019-03-20T01:37:06.893Z,7.17
2019-03-20T01:39:37.935Z,7.11
2019-03-20T01:42:09.940Z,7.21
2019-03-20T01:44:40.945Z,7.14
2019-03-20T01:47:11.928Z,7.17
2019-03-20T01:49:42.881Z,7.18
2019-03-20T01:52:13.887Z,7.17
2019-03-20T01:54:44.805Z,7.21
2019-03-20T01:57:15.938Z,7.22
2019-03-20T01:59:46.896Z,7.20
2019-03-20T02:02:17.809Z,7.15
2019-03-20T02:04:48.831Z,7.11
2019-03-20T02:07:19.747Z,7.06
2019-03-20T02:09:50.713Z,7.09
2019-03-20T02:12:21.624Z,7.00
2019-03-20T02:14:52.653Z,6.92
2019-03-20T02:17:23.581Z,6.91
2019-03-20T02:19:54.661Z,6.79
2019-03-20T02:22:25.711Z,6.86
2019-03-20T02:24:56.673Z,6.91
2019-03-20T02:27:27.689Z,6.82
2019-03-20T02:29:58.704Z,6.74
2019-03-20T02:32:29.683Z,6.74
2019-03-20T02:35:00.783Z,6.79
2019-03-20T02:37:32.945Z,6.82
2019-03-20T02:40:06.092Z,6.76
2019-03-20T02:42:38.480Z,6.71
2019-03-20T02:45:12.770Z,6.67
2019-03-20T02:47:43.671Z,6.69
2019-03-20T02:50:15.686Z,6.62
2019-03-20T02:52:46.572Z,6.61
2019-03-20T02:55:17.615Z,6.60
2019-03-20T02:57:49.437Z,6.65
2019-03-20T03:00:21.109Z,6.69
2019-03-20T03:02:52.191Z,6.73
2019-03-20T03:05:23.353Z,7.01
2019-03-20T03:07:54.527Z,7.03
2019-03-20T03:10:25.546Z,6.72
2019-03-20T03:12:56.476Z,6.64
2019-03-20T03:15:27.525Z,6.58
2019-03-20T03:17:58.476Z,6.63
2019-03-20T03:20:29.414Z,6.67
2019-03-20T03:23:00.418Z,6.60
2019-03-20T03:25:31.382Z,6.59
2019-03-20T03:28:02.348Z,6.58
2019-03-20T03:30:33.312Z,6.56
2019-03-20T03:33:04.230Z,6.40
2019-03-20T03:35:35.264Z,6.43
2019-03-20T03:38:06.179Z,6.45
2019-03-20T03:40:38.200Z,6.50
2019-03-20T03:43:09.262Z,6.46
2019-03-20T03:45:40.320Z,6.46
2019-03-20T03:48:11.293Z,6.32
2019-03-20T03:50:42.483Z,6.27
2019-03-20T03:53:13.476Z,6.25
2019-03-20T03:55:44.484Z,6.24
2019-03-20T03:58:16.208Z,6.13
2019-03-20T04:00:47.149Z,6.16
2019-03-20T04:03:18.042Z,6.30
2019-03-20T04:05:49.030Z,6.47
2019-03-20T04:08:20.100Z,6.54
2019-03-20T04:10:52.135Z,6.51
2019-03-20T04:13:23.128Z,6.53
2019-03-20T04:15:54.222Z,6.51
2019-03-20T04:18:25.140Z,6.46
2019-03-20T04:20:56.263Z,6.37
2019-03-20T04:23:27.263Z,6.23
2019-03-20T04:25:58.254Z,6.09
2019-03-20T04:28:31.414Z,6.07
2019-03-20T04:31:02.417Z,6.24
2019-03-20T04:33:33.422Z,6.06
2019-03-20T04:36:04.368Z,6.01
2019-03-20T04:38:35.302Z,6.01
2019-03-20T04:41:06.246Z,6.04
2019-03-20T04:43:37.177Z,6.12
2019-03-20T04:46:08.150Z,6.16
2019-03-20T04:48:39.110Z,6.14
2019-03-20T04:51:10.065Z,6.17
2019-03-20T04:53:41.351Z,6.11
2019-03-20T04:56:12.350Z,6.14
2019-03-20T04:58:44.192Z,6.16
2019-03-20T05:01:15.248Z,6.18
2019-03-20T05:03:47.232Z,6.24
2019-03-20T05:06:18.262Z,6.29
2019-03-20T05:08:49.356Z,6.11
2019-03-20T05:11:20.457Z,6.18
2019-03-20T05:13:51.387Z,6.23
2019-03-20T05:16:22.443Z,6.19
2019-03-20T05:18:53.487Z,6.13
2019-03-20T05:21:24.535Z,6.19
2019-03-20T05:23:55.545Z,6.21
2019-03-20T05:26:26.523Z,6.28
2019-03-20T05:28:57.617Z,6.22
2019-03-20T05:31:29.051Z,6.39
2019-03-20T05:34:00.086Z,6.17
2019-03-20T05:36:31.146Z,6.16
2019-03-20T05:39:02.280Z,6.06
2019-03-20T05:41:34.345Z,6.22
2019-03-20T05:44:05.228Z,6.30
2019-03-20T05:46:36.278Z,6.49
2019-03-20T05:49:07.458Z,6.44
2019-03-20T05:51:43.177Z,6.55
2019-03-20T05:54:17.619Z,6.30
2019-03-20T05:56:48.744Z,6.43
2019-03-20T05:59:20.602Z,6.45
2019-03-20T06:01:51.780Z,6.67
2019-03-20T06:04:22.699Z,6.71
2019-03-20T06:06:53.833Z,6.62
2019-03-20T06:09:24.697Z,6.62
2019-03-20T06:11:55.632Z,6.67
2019-03-20T06:14:26.520Z,6.66
2019-03-20T06:16:57.560Z,6.92
2019-03-20T06:19:28.520Z,6.87
2019-03-20T06:21:59.459Z,6.84
2019-03-20T06:24:30.354Z,6.76
2019-03-20T06:27:01.504Z,6.82
2019-03-20T06:29:32.422Z,6.85
2019-03-20T06:32:03.362Z,6.79
2019-03-20T06:34:34.224Z,6.80
2019-03-20T06:37:06.339Z,6.99
2019-03-20T06:39:37.520Z,6.88
2019-03-20T06:42:09.407Z,7.04
2019-03-20T06:44:40.467Z,7.10
2019-03-20T06:47:11.571Z,7.25
2019-03-20T06:49:42.704Z,7.37
2019-03-20T06:52:13.613Z,7.14
2019-03-20T06:55:01.082Z,6.95
2019-03-20T06:57:32.067Z,6.86
2019-03-20T07:00:38.918Z,6.83
2019-03-20T07:03:22.071Z,6.86
2019-03-20T07:06:12.415Z,7.04
2019-03-20T07:09:15.400Z,7.08
2019-03-20T07:11:46.292Z,7.21
2019-03-20T07:14:17.251Z,7.15
2019-03-20T07:16:48.296Z,7.11
2019-03-20T07:19:19.386Z,7.39
2019-03-20T07:21:50.395Z,7.54
2019-03-20T07:24:21.483Z,7.43
2019-03-20T07:26:52.778Z,7.47
2019-03-20T07:29:23.847Z,7.67
2019-03-20T07:31:54.765Z,7.52
2019-03-20T07:34:25.769Z,7.28
2019-03-20T07:36:56.653Z,7.17
2019-03-20T07:39:27.608Z,7.12
2019-03-20T07:41:58.445Z,7.29
2019-03-20T07:44:29.401Z,7.01
2019-03-20T07:47:00.541Z,7.20
2019-03-20T07:49:31.521Z,7.26
2019-03-20T07:52:02.639Z,7.33
2019-03-20T07:54:33.654Z,7.30
2019-03-20T07:57:04.638Z,7.48
2019-03-20T07:59:36.582Z,7.34
2019-03-20T08:02:08.248Z,7.50
2019-03-20T08:04:39.383Z,7.51
2019-03-20T08:07:10.312Z,7.53
2019-03-20T08:09:41.336Z,7.47
2019-03-20T08:12:12.133Z,7.75
2019-03-20T08:14:42.980Z,7.88
2019-03-20T08:17:13.970Z,7.95
2019-03-20T08:19:45.130Z,8.09
2019-03-20T08:22:16.015Z,8.07
2019-03-20T08:24:46.919Z,7.97
2019-03-20T08:27:17.947Z,8.11
2019-03-20T08:29:48.965Z,8.00
2019-03-20T08:32:19.780Z,7.84
2019-03-20T08:34:52.285Z,7.72
2019-03-20T08:37:23.262Z,7.80
2019-03-20T08:39:54.141Z,7.87
2019-03-20T08:42:25.093Z,7.79
2019-03-20T08:44:55.937Z,7.92
2019-03-20T08:47:26.772Z,7.92
2019-03-20T08:49:57.668Z,8.01
2019-03-20T08:52:28.562Z,8.02
2019-03-20T08:54:59.484Z,7.99
2019-03-20T08:57:30.394Z,8.18
2019-03-20T09:00:01.328Z,8.24
2019-03-20T09:02:33.264Z,8.39
2019-03-20T09:05:07.351Z,8.40
2019-03-20T09:07:46.847Z,8.50
2019-03-20T09:10:14.412Z,8.30
2019-03-20T09:12:45.424Z,8.44
2019-03-20T09:15:17.419Z,8.50
2019-03-20T09:17:48.424Z,8.71
2019-03-20T09:20:24.397Z,8.70
2019-03-20T09:22:55.296Z,8.75
2019-03-20T09:25:26.803Z,8.86
2019-03-20T09:27:57.879Z,8.84
2019-03-20T09:30:30.286Z,9.04
2019-03-20T09:33:01.369Z,9.19
2019-03-20T09:35:32.597Z,9.01
2019-03-20T09:38:03.713Z,9.29
2019-03-20T09:40:34.857Z,8.94
2019-03-20T09:43:05.891Z,9.13
2019-03-20T09:45:37.101Z,9.25
2019-03-20T09:48:08.238Z,9.42
2019-03-20T09:50:39.202Z,9.21
2019-03-20T09:53:10.033Z,9.13
2019-03-20T09:55:43.324Z,8.99
2019-03-20T09:58:15.899Z,9.30
2019-03-20T10:00:47.185Z,9.29
2019-03-20T10:03:19.046Z,9.48
2019-03-20T10:05:50.182Z,9.42
2019-03-20T10:08:24.610Z,9.48
2019-03-20T10:11:05.731Z,9.57
2019-03-20T10:13:37.613Z,9.70
2019-03-20T10:16:12.092Z,9.64
2019-03-20T10:18:42.443Z,9.86
2019-03-20T10:21:16.645Z,10.16
2019-03-20T10:23:52.285Z,10.27
2019-03-20T10:26:23.672Z,10.21
2019-03-20T10:28:54.898Z,10.14
2019-03-20T10:31:25.796Z,10.03
2019-03-20T10:33:57.015Z,10.13
2019-03-20T10:36:30.635Z,10.01
2019-03-20T10:39:06.989Z,9.91
2019-03-20T10:41:40.124Z,9.72
2019-03-20T10:44:11.062Z,9.69
2019-03-20T10:46:45.284Z,9.72
2019-03-20T10:49:19.419Z,9.83
2019-03-20T10:51:54.305Z,9.84
2019-03-20T10:54:25.318Z,9.80
2019-03-20T10:56:56.297Z,9.64
2019-03-20T10:59:28.810Z,9.67
2019-03-20T11:02:01.390Z,9.90
2019-03-20T11:04:33.267Z,9.91
2019-03-20T11:07:05.263Z,10.07
2019-03-20T11:09:36.313Z,10.08
2019-03-20T11:12:08.358Z,9.94
2019-03-20T11:14:39.378Z,9.96
2019-03-20T11:17:10.372Z,10.08
2019-03-20T11:19:41.218Z,10.18
2019-03-20T11:22:18.796Z,10.01
2019-03-20T11:24:44.815Z,10.09
2019-03-20T11:27:16.208Z,9.96
2019-03-20T11:29:48.941Z,9.98
2019-03-20T11:32:21.496Z,9.92
2019-03-20T11:34:54.174Z,9.98
2019-03-20T11:37:25.138Z,9.98
2019-03-20T11:39:57.817Z,9.89
2019-03-20T11:42:30.247Z,10.16
2019-03-20T11:45:01.171Z,10.21
2019-03-20T11:47:32.272Z,10.09
2019-03-20T11:50:04.107Z,10.09
2019-03-20T11:52:35.220Z,9.99
2019-03-20T11:55:07.848Z,10.08
2019-03-20T11:57:38.970Z,9.97
2019-03-20T12:00:16.242Z,10.09
2019-03-20T12:02:47.314Z,10.56
2019-03-20T12:05:19.121Z,10.63
2019-03-20T12:07:50.149Z,10.79
2019-03-20T12:10:23.340Z,10.83
2019-03-20T12:12:54.341Z,10.85
2019-03-20T12:15:25.250Z,11.37
2019-03-20T12:17:56.244Z,11.09
2019-03-20T12:20:27.360Z,10.74
2019-03-20T12:22:58.606Z,10.63
2019-03-20T12:25:35.849Z,10.34
2019-03-20T12:28:06.794Z,10.39
2019-03-20T12:30:38.741Z,10.53
2019-03-20T12:33:09.685Z,10.57
2019-03-20T12:35:43.054Z,11.06
2019-03-20T12:38:15.130Z,11.11
2019-03-20T12:40:46.242Z,10.73
2019-03-20T12:43:17.177Z,10.42
2019-03-20T12:45:48.201Z,10.12
2019-03-20T12:48:19.349Z,10.10
2019-03-20T12:50:50.272Z,10.07
2019-03-20T12:53:33.040Z,10.18
2019-03-20T12:56:04.013Z,10.32
2019-03-20T12:58:35.059Z,10.18
2019-03-20T13:01:06.236Z,9.94
2019-03-20T13:03:38.995Z,10.11
2019-03-20T13:06:10.889Z,10.01
2019-03-20T13:08:43.574Z,9.97
2019-03-20T13:11:14.516Z,9.80
2019-03-20T13:13:45.612Z,10.01
2019-03-20T13:16:24.078Z,10.00
2019-03-20T13:18:56.841Z,10.18
2019-03-20T13:21:27.896Z,10.45
2019-03-20T13:24:01.135Z,10.50
2019-03-20T13:26:32.124Z,10.50
2019-03-20T13:29:03.148Z,10.51
2019-03-20T13:31:34.150Z,10.47
2019-03-20T13:34:06.780Z,10.28
2019-03-20T13:36:37.945Z,10.13
2019-03-20T13:39:08.998Z,9.96
2019-03-20T13:41:40.012Z,10.05
2019-03-20T13:44:23.991Z,10.19
2019-03-20T13:46:55.053Z,10.16
2019-03-20T13:49:27.569Z,10.10
2019-03-20T13:52:01.761Z,10.04
2019-03-20T13:54:34.489Z,9.99
2019-03-20T13:57:05.363Z,9.96
2019-03-20T13:59:36.668Z,9.90
2019-03-20T14:02:09.663Z,9.74
2019-03-20T14:04:43.367Z,9.95
2019-03-20T14:07:15.038Z,9.85
2019-03-20T14:09:47.138Z,9.86
2019-03-20T14:12:19.810Z,9.90
2019-03-20T14:14:50.980Z,9.92
2019-03-20T14:17:22.098Z,9.91
2019-03-20T14:19:54.350Z,9.91
2019-03-20T14:22:25.475Z,9.93
2019-03-20T14:24:56.429Z,10.11
2019-03-20T14:27:27.451Z,10.23
2019-03-20T14:29:58.409Z,10.34
2019-03-20T14:32:29.371Z,10.34
2019-03-20T14:35:00.392Z,10.27
2019-03-20T14:37:31.443Z,10.07
2019-03-20T14:40:02.432Z,9.87
2019-03-20T14:42:33.668Z,9.77
2019-03-20T14:45:05.954Z,9.76
2019-03-20T14:47:42.135Z,9.73
2019-03-20T14:50:12.707Z,9.61
2019-03-20T14:52:43.612Z,9.60
2019-03-20T14:55:14.903Z,9.50
2019-03-20T14:57:45.951Z,9.47
2019-03-20T15:00:26.100Z,9.59
2019-03-20T15:02:57.186Z,9.59
2019-03-20T15:05:28.285Z,9.44
2019-03-20T15:08:00.191Z,9.38
2019-03-20T15:10:31.099Z,9.41
2019-03-20T15:13:01.957Z,9.44
2019-03-20T15:15:41.904Z,9.50
2019-03-20T15:18:12.727Z,9.43
2019-03-20T15:20:43.748Z,9.38
2019-03-20T15:23:15.289Z,9.38
2019-03-20T15:25:49.037Z,9.26
2019-03-20T15:28:20.145Z,9.29
2019-03-20T15:30:53.128Z,9.25
2019-03-20T15:33:25.652Z,9.37
2019-03-20T15:35:56.688Z,9.34
2019-03-20T15:38:27.751Z,9.34
2019-03-20T15:40:58.744Z,9.11
2019-03-20T15:43:30.678Z,9.30
2019-03-20T15:46:01.720Z,9.31
2019-03-20T15:48:32.881Z,9.30
2019-03-20T15:51:03.783Z,9.33
2019-03-20T15:53:34.729Z,9.21
2019-03-20T15:56:05.759Z,9.27
2019-03-20T15:58:36.568Z,9.12
2019-03-20T16:01:09.685Z,9.10
2019-03-20T16:03:46.018Z,9.04
2019-03-20T16:06:16.999Z,8.87
2019-03-20T16:08:49.802Z,8.77
2019-03-20T16:11:20.820Z,8.72
2019-03-20T16:13:51.782Z,8.64
2019-03-20T16:16:22.720Z,8.61
2019-03-20T16:18:53.594Z,8.56
2019-03-20T16:21:24.465Z,8.65
2019-03-20T16:23:55.336Z,8.53
2019-03-20T16:26:28.726Z,8.39
2019-03-20T16:28:59.855Z,8.31
2019-03-20T16:31:30.974Z,8.23
2019-03-20T16:34:01.876Z,8.23
2019-03-20T16:36:32.822Z,8.18
2019-03-20T16:39:05.628Z,8.16
2019-03-20T16:41:36.505Z,8.13
2019-03-20T16:44:07.443Z,8.08
2019-03-20T16:46:38.429Z,8.07
2019-03-20T16:49:09.383Z,8.06
2019-03-20T16:51:40.283Z,8.01
2019-03-20T16:54:11.286Z,8.01
2019-03-20T16:56:42.219Z,7.97
2019-03-20T16:59:13.110Z,7.92
2019-03-20T17:01:43.974Z,7.82
2019-03-20T17:04:14.926Z,7.82
2019-03-20T17:06:45.947Z,7.77
2019-03-20T17:09:17.566Z,7.73
2019-03-20T17:11:48.403Z,7.69
2019-03-20T17:14:20.364Z,7.68
2019-03-20T17:16:51.466Z,7.71
2019-03-20T17:19:22.356Z,7.72
2019-03-20T17:21:53.312Z,7.73
2019-03-20T17:24:24.185Z,7.72
2019-03-20T17:26:55.150Z,7.66
2019-03-20T17:29:26.103Z,7.74
2019-03-20T17:31:57.195Z,7.82
2019-03-20T17:34:28.227Z,7.82
2019-03-20T17:36:59.364Z,7.78
2019-03-20T17:39:30.531Z,7.77
2019-03-20T17:42:01.811Z,7.66
2019-03-20T17:44:33.001Z,7.63
2019-03-20T17:47:04.050Z,7.70
2019-03-20T17:49:35.704Z,7.75
2019-03-20T17:52:08.157Z,7.72
2019-03-20T17:54:39.259Z,7.77
2019-03-20T17:57:14.407Z,7.83
2019-03-20T17:59:45.865Z,7.89
2019-03-20T18:02:23.878Z,7.82
2019-03-20T18:04:50.107Z,7.87
2019-03-20T18:07:22.926Z,7.83
2019-03-20T18:09:54.460Z,7.68
2019-03-20T18:12:25.621Z,7.69
2019-03-20T18:14:56.714Z,7.71
2019-03-20T18:17:28.083Z,7.83
2019-03-20T18:19:59.382Z,7.65
2019-03-20T18:22:32.375Z,7.77
2019-03-20T18:25:03.386Z,7.77
2019-03-20T18:27:34.450Z,7.79
2019-03-20T18:30:11.426Z,7.76
2019-03-20T18:32:42.744Z,7.86
2019-03-20T18:35:14.381Z,7.85
2019-03-20T18:37:45.612Z,7.84
2019-03-20T18:40:22.756Z,7.85
2019-03-20T18:42:53.950Z,7.88
2019-03-20T18:45:28.269Z,7.90
2019-03-20T18:47:59.543Z,7.82
2019-03-20T18:50:30.789Z,7.97
2019-03-20T18:53:02.438Z,7.99
2019-03-20T18:55:33.987Z,7.80
2019-03-20T18:58:05.577Z,7.68
2019-03-20T19:00:36.855Z,7.64
2019-03-20T19:03:14.405Z,7.70
2019-03-20T19:05:52.106Z,7.65
2019-03-20T19:08:24.007Z,7.69
2019-03-20T19:10:57.066Z,7.66
2019-03-20T19:13:28.561Z,7.63
2019-03-20T19:16:01.370Z,7.64
2019-03-20T19:18:33.067Z,7.67
2019-03-20T19:21:04.691Z,7.60
2019-03-20T19:23:35.782Z,7.58
2019-03-20T19:26:07.851Z,7.42
2019-03-20T19:28:39.133Z,7.39
2019-03-20T19:31:10.544Z,7.41
2019-03-20T19:33:41.620Z,7.32
2019-03-20T19:36:12.676Z,7.38
2019-03-20T19:38:43.690Z,7.34
2019-03-20T19:41:14.868Z,7.40
2019-03-20T19:43:46.145Z,7.33
2019-03-20T19:46:17.056Z,7.32
2019-03-20T19:48:50.614Z,7.29
2019-03-20T19:51:21.627Z,7.25
2019-03-20T19:54:08.790Z,7.18
2019-03-20T19:56:40.630Z,7.10
2019-03-20T19:59:12.483Z,7.05
2019-03-20T20:01:44.510Z,7.07
2019-03-20T20:04:16.454Z,7.01
2019-03-20T20:06:48.957Z,7.01
2019-03-20T20:09:20.983Z,7.05
2019-03-20T20:11:52.968Z,6.98
2019-03-20T20:14:27.116Z,6.89
2019-03-20T20:16:58.474Z,6.83
2019-03-20T20:19:29.696Z,6.90
2019-03-20T20:22:06.119Z,6.81
2019-03-20T20:24:37.210Z,6.69
2019-03-20T20:27:08.464Z,6.70
2019-03-20T20:29:41.397Z,6.66
2019-03-20T20:32:15.221Z,6.56
2019-03-20T20:34:47.635Z,6.63
2019-03-20T20:37:21.999Z,6.42
2019-03-20T20:39:53.487Z,6.50
2019-03-20T20:42:26.092Z,6.45
2019-03-20T20:45:05.557Z,6.37
2019-03-20T20:47:42.094Z,6.48
2019-03-20T20:50:17.838Z,6.44
2019-03-20T20:52:56.647Z,6.33
2019-03-20T20:55:27.589Z,6.42
2019-03-20T20:57:58.515Z,6.38
2019-03-20T21:00:29.758Z,6.23
2019-03-20T21:03:01.168Z,6.23
2019-03-20T21:05:34.011Z,6.12
2019-03-20T21:08:08.882Z,6.14
2019-03-20T21:10:41.415Z,6.05
2019-03-20T21:13:13.231Z,6.12
2019-03-20T21:15:47.897Z,5.96
2019-03-20T21:18:37.190Z,5.92
2019-03-20T21:21:09.343Z,5.90
2019-03-20T21:24:00.412Z,5.88
2019-03-20T21:26:53.909Z,5.93
2019-03-20T21:29:46.586Z,5.91
2019-03-20T21:32:36.715Z,5.85
2019-03-20T21:35:46.006Z,5.88
2019-03-20T21:38:16.165Z,5.88
2019-03-20T21:41:10.893Z,5.81
2019-03-20T21:44:10.781Z,5.90
2019-03-20T21:46:56.960Z,5.78
2019-03-20T21:49:27.890Z,5.78
2019-03-20T21:51:58.772Z,5.83
2019-03-20T21:54:58.639Z,5.77
2019-03-20T21:57:38.725Z,5.79
2019-03-20T22:00:29.081Z,5.64
2019-03-20T22:02:59.891Z,5.53
2019-03-20T22:05:48.452Z,5.42
2019-03-20T22:08:19.326Z,5.42
2019-03-20T22:11:20.622Z,5.28
2019-03-20T22:14:05.359Z,5.31
2019-03-20T22:16:59.229Z,5.30
2019-03-20T22:19:42.262Z,5.26
2019-03-20T22:22:25.562Z,5.12
2019-03-20T22:25:11.677Z,5.06
2019-03-20T22:28:04.124Z,5.10
2019-03-20T22:30:35.077Z,5.11
2019-03-20T22:33:18.297Z,4.99
2019-03-20T22:35:49.776Z,5.02
2019-03-20T22:38:26.537Z,4.99
2019-03-20T22:41:33.894Z,4.93
2019-03-20T22:44:04.731Z,4.89
2019-03-20T22:46:56.955Z,4.82
2019-03-20T22:49:35.635Z,4.81
2019-03-20T22:52:13.435Z,4.74
2019-03-20T22:54:56.542Z,4.64
2019-03-20T22:57:36.620Z,4.63
2019-03-20T23:00:10.810Z,4.65
2019-03-20T23:02:52.147Z,4.61
2019-03-20T23:05:23.188Z,4.54
2019-03-20T23:07:54.149Z,4.52
2019-03-20T23:10:25.118Z,4.50
2019-03-20T23:12:56.079Z,4.52
2019-03-20T23:15:27.908Z,4.39
2019-03-20T23:17:58.678Z,4.43
2019-03-20T23:20:29.631Z,4.45
2019-03-20T23:23:00.664Z,4.40
2019-03-20T23:25:31.623Z,4.42
2019-03-20T23:28:02.607Z,4.37
2019-03-20T23:30:34.694Z,4.32
2019-03-20T23:33:05.728Z,4.31
2019-03-20T23:35:36.824Z,4.21
2019-03-20T23:38:07.832Z,4.28
2019-03-20T23:40:38.874Z,4.27
2019-03-20T23:43:12.392Z,4.23
2019-03-20T23:45:42.831Z,4.25
2019-03-20T23:48:41.052Z,4.18
2019-03-20T23:51:18.207Z,4.12
2019-03-20T23:53:51.130Z,4.09
2019-03-20T23:56:22.671Z,4.12
2019-03-20T23:58:53.611Z,4.01
